createdAt,value
2023-02-26T00:02:25.245Z,96459.95
2023-02-26T00:04:51.571Z,96470.24
2023-02-26T00:07:17.936Z,96472.82
2023-02-26T00:09:44.281Z,96477.67
2023-02-26T00:12:11.325Z,96482.77
2023-02-26T00:14:37.832Z,96486.01
2023-02-26T00:17:07.310Z,96490.77
2023-02-26T00:19:33.733Z,96494.30
2023-02-26T00:22:00.115Z,96501.17
2023-02-26T00:24:26.628Z,96505.52
2023-02-26T00:26:53.031Z,96503.42
2023-02-26T00:29:19.491Z,96506.50
2023-02-26T00:31:46.040Z,96506.55
2023-02-26T00:34:12.836Z,96507.58
2023-02-26T00:36:50.025Z,96512.06
2023-02-26T00:39:19.388Z,96518.43
2023-02-26T00:41:45.848Z,96519.87
2023-02-26T00:44:12.443Z,96525.34
2023-02-26T00:46:44.866Z,96527.46
2023-02-26T00:49:26.592Z,96528.02
2023-02-26T00:51:54.994Z,96533.27
2023-02-26T00:54:29.226Z,96529.42
2023-02-26T00:56:57.239Z,96531.84
2023-02-26T00:59:24.378Z,96534.20
2023-02-26T01:01:51.880Z,96540.38
2023-02-26T01:04:20.570Z,96541.84
2023-02-26T01:06:48.328Z,96544.30
2023-02-26T01:09:23.594Z,96546.36
2023-02-26T01:11:50.041Z,96551.46
2023-02-26T01:14:17.077Z,96554.73
2023-02-26T01:17:03.575Z,96553.94
2023-02-26T01:19:43.568Z,96554.25
2023-02-26T01:22:14.864Z,96554.45
2023-02-26T01:24:42.061Z,96554.79
2023-02-26T01:27:08.689Z,96554.80
2023-02-26T01:29:37.511Z,96559.98
2023-02-26T01:32:08.109Z,96559.05
2023-02-26T01:34:38.849Z,96560.02
2023-02-26T01:37:23.661Z,96563.73
2023-02-26T01:40:12.697Z,96565.13
2023-02-26T01:42:42.251Z,96557.69
2023-02-26T01:45:16.090Z,96559.54
2023-02-26T01:47:56.273Z,96562.81
2023-02-26T01:50:25.704Z,96563.01
2023-02-26T01:53:15.682Z,96566.34
2023-02-26T01:55:43.777Z,96576.61
2023-02-26T01:58:10.545Z,96581.77
2023-02-26T02:00:37.112Z,96583.19
2023-02-26T02:03:03.770Z,96587.61
2023-02-26T02:05:32.910Z,96589.61
2023-02-26T02:07:59.590Z,96598.74
2023-02-26T02:10:27.206Z,96602.20
2023-02-26T02:12:57.037Z,96607.52
2023-02-26T02:15:32.879Z,96608.11
2023-02-26T02:18:10.534Z,96611.70
2023-02-26T02:20:56.747Z,96613.71
2023-02-26T02:23:26.212Z,96617.63
2023-02-26T02:26:01.784Z,96619.43
2023-02-26T02:28:49.846Z,96624.87
2023-02-26T02:31:26.562Z,96632.92
2023-02-26T02:33:53.231Z,96635.73
2023-02-26T02:36:28.273Z,96640.96
2023-02-26T02:38:57.328Z,96648.39
2023-02-26T02:41:30.980Z,96650.39
2023-02-26T02:44:00.419Z,96654.95
2023-02-26T02:46:30.104Z,96652.66
2023-02-26T02:49:04.839Z,96659.34
2023-02-26T02:51:33.615Z,96663.14
2023-02-26T02:54:06.444Z,96668.84
2023-02-26T02:56:47.108Z,96670.79
2023-02-26T02:59:31.855Z,96671.23
2023-02-26T03:02:07.732Z,96670.11
2023-02-26T03:04:34.657Z,96669.40
2023-02-26T03:07:02.961Z,96674.16
2023-02-26T03:09:29.282Z,96672.59
2023-02-26T03:11:55.581Z,96674.96
2023-02-26T03:14:22.051Z,96681.51
2023-02-26T03:17:14.983Z,96685.50
2023-02-26T03:20:00.280Z,96690.70
2023-02-26T03:22:27.053Z,96688.73
2023-02-26T03:25:01.723Z,96687.70
2023-02-26T03:27:31.790Z,96682.94
2023-02-26T03:30:01.790Z,96690.83
2023-02-26T03:32:33.907Z,96693.70
2023-02-26T03:35:15.637Z,96702.05
2023-02-26T03:37:44.949Z,96709.16
2023-02-26T03:40:15.496Z,96715.00
2023-02-26T03:42:45.651Z,96720.64
2023-02-26T03:45:17.638Z,96725.88
2023-02-26T03:47:48.168Z,96728.44
2023-02-26T03:50:21.488Z,96732.54
2023-02-26T03:52:54.245Z,96737.02
2023-02-26T03:55:31.672Z,96744.31
2023-02-26T03:58:07.138Z,96744.42
2023-02-26T04:00:45.329Z,96746.83
2023-02-26T04:03:19.243Z,96745.80
2023-02-26T04:05:48.036Z,96747.27
2023-02-26T04:08:14.441Z,96749.48
2023-02-26T04:10:43.028Z,96748.85
2023-02-26T04:13:09.497Z,96755.55
2023-02-26T04:15:36.780Z,96759.52
2023-02-26T04:18:04.212Z,96759.44
2023-02-26T04:20:30.610Z,96759.63
2023-02-26T04:22:56.909Z,96761.38
2023-02-26T04:25:23.501Z,96764.17
2023-02-26T04:27:50.836Z,96766.48
2023-02-26T04:30:17.269Z,96772.29
2023-02-26T04:32:43.746Z,96774.17
2023-02-26T04:35:10.785Z,96777.17
2023-02-26T04:37:37.098Z,96778.96
2023-02-26T04:40:03.693Z,96781.39
2023-02-26T04:42:30.996Z,96791.84
2023-02-26T04:44:57.379Z,96792.27
2023-02-26T04:47:24.816Z,96795.52
2023-02-26T04:49:51.347Z,96799.08
2023-02-26T04:52:18.877Z,96799.11
2023-02-26T04:54:45.597Z,96800.03
2023-02-26T04:57:13.673Z,96802.11
2023-02-26T04:59:40.132Z,96807.27
2023-02-26T05:02:08.120Z,96812.16
2023-02-26T05:04:38.050Z,96819.98
2023-02-26T05:07:04.554Z,96826.44
2023-02-26T05:09:33.566Z,96825.02
2023-02-26T05:11:59.953Z,96830.38
2023-02-26T05:14:26.500Z,96829.88
2023-02-26T05:16:53.019Z,96832.69
2023-02-26T05:19:19.496Z,96837.64
2023-02-26T05:21:46.663Z,96841.52
2023-02-26T05:24:14.225Z,96845.16
2023-02-26T05:26:40.822Z,96850.45
2023-02-26T05:29:07.304Z,96858.09
2023-02-26T05:31:33.818Z,96858.84
2023-02-26T05:34:00.171Z,96873.67
2023-02-26T05:36:26.732Z,96878.63
2023-02-26T05:38:53.202Z,96880.30
2023-02-26T05:41:19.780Z,96885.55
2023-02-26T05:43:46.071Z,96892.19
2023-02-26T05:46:15.777Z,96900.48
2023-02-26T05:48:44.685Z,96905.05
2023-02-26T05:51:11.941Z,96909.61
2023-02-26T05:53:38.348Z,96917.08
2023-02-26T05:56:04.973Z,96922.03
2023-02-26T05:58:33.747Z,96933.51
2023-02-26T06:01:05.177Z,96939.73
2023-02-26T06:03:37.111Z,96944.09
2023-02-26T06:06:03.724Z,96945.86
2023-02-26T06:08:30.350Z,96949.86
2023-02-26T06:10:56.962Z,96951.02
2023-02-26T06:13:26.512Z,96958.94
2023-02-26T06:15:55.654Z,96959.77
2023-02-26T06:18:24.491Z,96960.55
2023-02-26T06:20:50.857Z,96963.23
2023-02-26T06:23:17.394Z,96968.34
2023-02-26T06:25:43.922Z,96969.42
2023-02-26T06:28:10.771Z,96977.29
2023-02-26T06:30:40.315Z,96983.15
2023-02-26T06:33:06.737Z,96995.75
2023-02-26T06:35:33.095Z,97001.96
2023-02-26T06:38:02.027Z,97003.96
2023-02-26T06:40:28.714Z,97000.73
2023-02-26T06:42:55.050Z,97001.67
2023-02-26T06:45:21.530Z,97000.57
2023-02-26T06:47:48.122Z,97003.06
2023-02-26T06:50:15.081Z,97000.69
2023-02-26T06:52:41.413Z,97009.45
2023-02-26T06:55:10.472Z,97015.33
2023-02-26T06:57:41.621Z,97022.18
2023-02-26T07:00:08.823Z,97025.71
2023-02-26T07:02:35.698Z,97028.69
2023-02-26T07:05:02.951Z,97034.95
2023-02-26T07:07:31.812Z,97034.23
2023-02-26T07:09:58.231Z,97034.60
2023-02-26T07:12:27.810Z,97039.97
2023-02-26T07:14:54.279Z,97038.88
2023-02-26T07:17:20.848Z,97042.77
2023-02-26T07:19:48.369Z,97048.39
2023-02-26T07:22:14.821Z,97050.65
2023-02-26T07:24:45.527Z,97055.15
2023-02-26T07:27:11.878Z,97061.50
2023-02-26T07:29:38.292Z,97061.89
2023-02-26T07:32:04.934Z,97062.66
2023-02-26T07:34:31.478Z,97066.70
2023-02-26T07:36:57.950Z,97070.35
2023-02-26T07:39:25.052Z,97069.94
2023-02-26T07:41:51.350Z,97072.23
2023-02-26T07:44:17.861Z,97074.35
2023-02-26T07:46:44.525Z,97078.73
2023-02-26T07:49:10.958Z,97078.31
2023-02-26T07:51:37.297Z,97077.98
2023-02-26T07:54:03.667Z,97079.91
2023-02-26T07:56:29.961Z,97081.64
2023-02-26T07:58:56.494Z,97085.15
2023-02-26T08:01:22.806Z,97089.90
2023-02-26T08:03:49.328Z,97090.76
2023-02-26T08:06:16.032Z,97088.92
2023-02-26T08:08:42.518Z,97089.33
2023-02-26T08:11:08.923Z,97090.31
2023-02-26T08:13:35.389Z,97097.31
2023-02-26T08:16:02.000Z,97105.52
2023-02-26T08:18:28.581Z,97104.23
2023-02-26T08:20:55.026Z,97100.27
2023-02-26T08:23:21.355Z,97105.89
2023-02-26T08:25:48.009Z,97105.95
2023-02-26T08:28:14.374Z,97107.91
2023-02-26T08:30:41.027Z,97106.84
2023-02-26T08:33:07.631Z,97120.79
2023-02-26T08:35:34.226Z,97123.86
2023-02-26T08:38:00.614Z,97125.04
2023-02-26T08:40:27.131Z,97134.81
2023-02-26T08:42:53.598Z,97137.05
2023-02-26T08:45:20.040Z,97136.45
2023-02-26T08:47:56.371Z,97142.67
2023-02-26T08:50:24.461Z,97141.66
2023-02-26T08:52:51.052Z,97146.35
2023-02-26T08:55:17.592Z,97145.90
2023-02-26T08:57:45.579Z,97142.52
2023-02-26T09:00:12.402Z,97140.08
2023-02-26T09:02:38.949Z,97141.77
2023-02-26T09:05:05.603Z,97144.65
2023-02-26T09:07:32.083Z,97151.77
2023-02-26T09:09:58.963Z,97156.52
2023-02-26T09:12:26.123Z,97164.48
2023-02-26T09:14:52.593Z,97174.06
2023-02-26T09:17:19.016Z,97178.02
2023-02-26T09:19:45.373Z,97190.80
2023-02-26T09:22:11.904Z,97193.50
2023-02-26T09:24:38.336Z,97197.66
2023-02-26T09:27:04.837Z,97199.20
2023-02-26T09:29:31.343Z,97208.23
2023-02-26T09:31:58.326Z,97207.95
2023-02-26T09:34:24.774Z,97206.95
2023-02-26T09:36:51.738Z,97213.08
2023-02-26T09:39:18.074Z,97214.89
2023-02-26T09:41:49.040Z,97221.59
2023-02-26T09:44:20.271Z,97228.45
2023-02-26T09:46:59.898Z,97221.77
2023-02-26T09:49:44.961Z,97228.92
2023-02-26T09:52:29.699Z,97233.91
2023-02-26T09:54:59.529Z,97246.46
2023-02-26T09:57:31.007Z,97257.82
2023-02-26T09:59:58.267Z,97261.41
2023-02-26T10:02:33.064Z,97264.80
2023-02-26T10:05:04.805Z,97269.39
2023-02-26T10:07:51.937Z,97267.88
2023-02-26T10:10:23.546Z,97266.06
2023-02-26T10:12:51.561Z,97265.92
2023-02-26T10:15:26.230Z,97270.27
2023-02-26T10:18:16.070Z,97276.45
2023-02-26T10:20:46.628Z,97276.61
2023-02-26T10:23:30.148Z,97274.02
2023-02-26T10:26:23.124Z,97281.33
2023-02-26T10:29:02.033Z,97283.91
2023-02-26T10:31:46.856Z,97291.02
2023-02-26T10:34:22.495Z,97296.38
2023-02-26T10:37:02.532Z,97292.42
2023-02-26T10:39:37.256Z,97293.96
2023-02-26T10:42:09.818Z,97292.46
2023-02-26T10:44:45.254Z,97298.08
2023-02-26T10:47:44.713Z,97303.56
2023-02-26T10:50:16.053Z,97310.39
2023-02-26T10:52:46.255Z,97309.63
2023-02-26T10:55:31.892Z,97313.84
2023-02-26T10:57:58.328Z,97323.10
2023-02-26T11:00:24.738Z,97327.63
2023-02-26T11:02:53.193Z,97329.25
2023-02-26T11:05:23.774Z,97329.00
2023-02-26T11:08:13.424Z,97322.41
2023-02-26T11:10:59.173Z,97326.86
2023-02-26T11:13:26.558Z,97326.84
2023-02-26T11:15:54.494Z,97341.27
2023-02-26T11:18:23.819Z,97344.19
2023-02-26T11:20:52.762Z,97341.91
2023-02-26T11:23:21.604Z,97342.71
2023-02-26T11:25:51.949Z,97347.75
2023-02-26T11:28:18.497Z,97356.23
2023-02-26T11:30:45.496Z,97363.73
2023-02-26T11:33:16.924Z,97369.41
2023-02-26T11:35:44.213Z,97372.02
2023-02-26T11:38:17.272Z,97374.11
2023-02-26T11:40:45.796Z,97379.31
2023-02-26T11:43:15.007Z,97382.95
2023-02-26T11:45:43.402Z,97385.04
2023-02-26T11:48:13.005Z,97387.08
2023-02-26T11:50:45.864Z,97390.59
2023-02-26T11:53:19.166Z,97390.38
2023-02-26T11:55:46.504Z,97390.67
2023-02-26T11:58:17.636Z,97397.39
2023-02-26T12:00:44.388Z,97406.30
2023-02-26T12:03:26.124Z,97411.13
2023-02-26T12:05:52.951Z,97412.40
2023-02-26T12:08:36.561Z,97413.54
2023-02-26T12:11:22.903Z,97416.52
2023-02-26T12:14:08.257Z,97418.16
2023-02-26T12:16:53.517Z,97422.54
2023-02-26T12:19:38.759Z,97426.73
2023-02-26T12:22:18.072Z,97436.73
2023-02-26T12:24:50.568Z,97439.33
2023-02-26T12:27:33.919Z,97441.79
2023-02-26T12:30:24.082Z,97446.84
2023-02-26T12:33:06.731Z,97446.38
2023-02-26T12:35:38.780Z,97447.92
2023-02-26T12:38:15.369Z,97451.46
2023-02-26T12:41:00.699Z,97457.06
2023-02-26T12:43:45.863Z,97456.94
2023-02-26T12:46:18.436Z,97461.77
2023-02-26T12:48:44.981Z,97459.54
2023-02-26T12:51:14.465Z,97462.09
2023-02-26T12:53:40.897Z,97467.97
2023-02-26T12:56:25.928Z,97470.35
2023-02-26T12:59:12.794Z,97476.83
2023-02-26T13:02:00.995Z,97483.00
2023-02-26T13:04:27.992Z,97484.20
2023-02-26T13:06:57.420Z,97485.77
2023-02-26T13:09:23.850Z,97484.77
2023-02-26T13:12:00.406Z,97488.02
2023-02-26T13:14:41.245Z,97486.69
2023-02-26T13:17:26.092Z,97486.49
2023-02-26T13:19:58.098Z,97488.98
2023-02-26T13:22:24.793Z,97494.66
2023-02-26T13:25:00.339Z,97496.57
2023-02-26T13:27:30.413Z,97499.28
2023-02-26T13:30:10.785Z,97502.10
2023-02-26T13:32:38.670Z,97503.13
2023-02-26T13:35:18.585Z,97506.41
2023-02-26T13:37:47.050Z,97511.34
2023-02-26T13:40:13.484Z,97516.70
2023-02-26T13:42:43.649Z,97521.40
2023-02-26T13:45:19.135Z,97529.70
2023-02-26T13:48:03.682Z,97534.94
2023-02-26T13:50:43.344Z,97541.06
2023-02-26T13:53:28.761Z,97548.75
2023-02-26T13:56:15.173Z,97551.77
2023-02-26T13:58:44.180Z,97547.45
2023-02-26T14:01:26.954Z,97552.68
2023-02-26T14:04:08.266Z,97550.92
2023-02-26T14:06:38.055Z,97555.72
2023-02-26T14:09:24.898Z,97560.13
2023-02-26T14:11:55.768Z,97566.87
2023-02-26T14:14:22.541Z,97568.45
2023-02-26T14:16:53.816Z,97574.83
2023-02-26T14:19:20.354Z,97578.02
2023-02-26T14:21:50.894Z,97580.33
2023-02-26T14:24:44.027Z,97584.21
2023-02-26T14:27:10.719Z,97588.88
2023-02-26T14:30:07.024Z,97591.61
2023-02-26T14:32:34.879Z,97593.15
2023-02-26T14:35:05.976Z,97593.92
2023-02-26T14:37:40.835Z,97596.30
2023-02-26T14:40:07.604Z,97597.01
2023-02-26T14:42:37.103Z,97594.17
2023-02-26T14:45:17.026Z,97594.20
2023-02-26T14:47:51.348Z,97592.20
2023-02-26T14:50:19.324Z,97596.06
2023-02-26T14:53:03.374Z,97601.75
2023-02-26T14:55:31.109Z,97603.55
2023-02-26T14:58:00.606Z,97610.42
2023-02-26T15:00:37.658Z,97612.89
2023-02-26T15:03:28.949Z,97613.64
2023-02-26T15:06:01.824Z,97619.64
2023-02-26T15:08:28.518Z,97623.10
2023-02-26T15:11:16.649Z,97627.81
2023-02-26T15:13:42.988Z,97631.71
2023-02-26T15:16:15.057Z,97640.66
2023-02-26T15:19:00.115Z,97646.78
2023-02-26T15:21:45.553Z,97650.59
2023-02-26T15:24:13.369Z,97649.08
2023-02-26T15:26:44.661Z,97659.23
2023-02-26T15:29:13.244Z,97661.42
2023-02-26T15:31:41.391Z,97669.89
2023-02-26T15:34:10.463Z,97674.15
2023-02-26T15:36:39.398Z,97676.27
2023-02-26T15:39:06.536Z,97678.23
2023-02-26T15:41:37.760Z,97680.85
2023-02-26T15:44:09.114Z,97683.27
2023-02-26T15:46:46.623Z,97690.61
2023-02-26T15:49:33.296Z,97697.10
2023-02-26T15:52:01.025Z,97697.98
2023-02-26T15:54:53.604Z,97698.73
2023-02-26T15:57:21.846Z,97694.67
2023-02-26T15:59:50.018Z,97697.16
2023-02-26T16:02:19.347Z,97697.29
2023-02-26T16:04:45.975Z,97700.31
2023-02-26T16:07:12.852Z,97698.57
2023-02-26T16:09:41.069Z,97702.45
2023-02-26T16:12:10.158Z,97699.64
2023-02-26T16:14:39.060Z,97706.32
2023-02-26T16:17:07.162Z,97707.42
2023-02-26T16:19:41.178Z,97715.98
2023-02-26T16:22:29.819Z,97724.26
2023-02-26T16:25:00.855Z,97731.61
2023-02-26T16:27:28.447Z,97741.20
2023-02-26T16:29:56.918Z,97745.14
2023-02-26T16:32:24.765Z,97747.82
2023-02-26T16:34:53.170Z,97748.20
2023-02-26T16:37:20.109Z,97755.45
2023-02-26T16:39:50.818Z,97757.86
2023-02-26T16:42:22.297Z,97760.79
2023-02-26T16:44:50.877Z,97765.07
2023-02-26T16:47:17.756Z,97771.10
2023-02-26T16:49:47.434Z,97773.41
2023-02-26T16:52:18.972Z,97772.71
2023-02-26T16:54:51.192Z,97769.80
2023-02-26T16:57:19.824Z,97772.29
2023-02-26T16:59:49.230Z,97777.49
2023-02-26T17:02:24.223Z,97777.82
2023-02-26T17:04:54.131Z,97783.27
2023-02-26T17:07:30.331Z,97782.64
2023-02-26T17:09:58.443Z,97783.87
2023-02-26T17:12:38.515Z,97789.20
2023-02-26T17:15:11.503Z,97794.02
2023-02-26T17:17:41.724Z,97796.27
2023-02-26T17:20:10.708Z,97799.34
2023-02-26T17:22:37.995Z,97802.95
2023-02-26T17:25:05.731Z,97800.09
2023-02-26T17:27:34.204Z,97801.63
2023-02-26T17:30:02.454Z,97802.13
2023-02-26T17:32:30.548Z,97806.25
2023-02-26T17:34:57.781Z,97807.41
2023-02-26T17:37:29.417Z,97808.75
2023-02-26T17:39:56.650Z,97811.27
2023-02-26T17:42:23.094Z,97814.86
2023-02-26T17:44:49.830Z,97818.14
2023-02-26T17:47:20.766Z,97816.61
2023-02-26T17:49:48.556Z,97819.35
2023-02-26T17:52:15.326Z,97820.24
2023-02-26T17:54:42.042Z,97823.30
2023-02-26T17:57:14.090Z,97821.60
2023-02-26T17:59:40.648Z,97821.77
2023-02-26T18:02:21.994Z,97819.20
2023-02-26T18:04:49.672Z,97818.05
2023-02-26T18:07:16.635Z,97824.20
2023-02-26T18:09:46.920Z,97826.99
2023-02-26T18:12:14.402Z,97836.66
2023-02-26T18:14:41.408Z,97837.25
2023-02-26T18:17:12.675Z,97838.64
2023-02-26T18:19:39.231Z,97841.59
2023-02-26T18:22:10.430Z,97836.42
2023-02-26T18:24:36.939Z,97843.45
2023-02-26T18:27:04.345Z,97844.86
2023-02-26T18:29:36.261Z,97850.05
2023-02-26T18:32:03.841Z,97852.32
2023-02-26T18:34:32.654Z,97857.58
2023-02-26T18:37:03.150Z,97864.99
2023-02-26T18:39:30.246Z,97872.11
2023-02-26T18:41:57.029Z,97878.18
2023-02-26T18:44:23.609Z,97883.89
2023-02-26T18:46:50.016Z,97882.33
2023-02-26T18:49:18.325Z,97884.64
2023-02-26T18:51:45.200Z,97888.01
2023-02-26T18:54:12.244Z,97890.70
2023-02-26T18:56:41.006Z,97892.39
2023-02-26T18:59:10.239Z,97893.89
2023-02-26T19:01:37.734Z,97894.39
2023-02-26T19:04:04.225Z,97895.22
2023-02-26T19:06:30.654Z,97894.33
2023-02-26T19:08:57.888Z,97893.10
2023-02-26T19:11:24.716Z,97893.58
2023-02-26T19:13:52.515Z,97897.27
2023-02-26T19:16:20.500Z,97898.92
2023-02-26T19:18:46.972Z,97901.95
2023-02-26T19:21:13.458Z,97904.64
2023-02-26T19:23:39.932Z,97909.73
2023-02-26T19:26:06.508Z,97918.05
2023-02-26T19:28:32.969Z,97917.55
2023-02-26T19:30:59.683Z,97919.77
2023-02-26T19:33:26.370Z,97924.15
2023-02-26T19:35:52.768Z,97926.20
2023-02-26T19:38:19.453Z,97928.89
2023-02-26T19:40:46.639Z,97930.08
2023-02-26T19:43:13.154Z,97930.05
2023-02-26T19:45:40.722Z,97932.42
2023-02-26T19:48:07.353Z,97929.89
2023-02-26T19:50:34.050Z,97935.34
2023-02-26T19:53:05.093Z,97940.83
2023-02-26T19:55:32.376Z,97939.31
2023-02-26T19:57:58.870Z,97938.33
2023-02-26T20:00:25.555Z,97943.09
2023-02-26T20:02:52.261Z,97947.30
2023-02-26T20:05:18.902Z,97950.20
2023-02-26T20:07:45.529Z,97951.36
2023-02-26T20:10:12.406Z,97953.05
2023-02-26T20:12:38.943Z,97957.97
2023-02-26T20:15:05.920Z,97960.33
2023-02-26T20:17:32.650Z,97962.85
2023-02-26T20:19:59.301Z,97965.55
2023-02-26T20:22:25.912Z,97967.27
2023-02-26T20:24:52.604Z,97970.02
2023-02-26T20:27:19.091Z,97970.33
2023-02-26T20:29:46.378Z,97972.55
2023-02-26T20:32:13.131Z,97972.86
2023-02-26T20:34:39.890Z,97975.23
2023-02-26T20:37:06.624Z,97972.00
2023-02-26T20:39:33.088Z,97975.09
2023-02-26T20:41:59.691Z,97978.54
2023-02-26T20:44:26.678Z,97982.80
2023-02-26T20:46:57.327Z,97981.77
2023-02-26T20:49:24.695Z,97985.20
2023-02-26T20:51:54.473Z,97988.13
2023-02-26T20:54:21.113Z,97988.34
2023-02-26T20:56:48.268Z,97993.29
2023-02-26T20:59:18.540Z,97991.48
2023-02-26T21:01:46.300Z,97991.35
2023-02-26T21:04:13.030Z,97996.16
2023-02-26T21:06:39.752Z,97997.73
2023-02-26T21:09:06.490Z,97999.42
2023-02-26T21:11:35.161Z,97998.59
2023-02-26T21:14:03.610Z,97993.16
2023-02-26T21:16:30.730Z,98002.17
2023-02-26T21:18:57.732Z,98008.27
2023-02-26T21:21:30.999Z,98008.23
2023-02-26T21:24:06.913Z,98008.00
2023-02-26T21:26:35.232Z,98009.54
2023-02-26T21:29:02.080Z,98008.91
2023-02-26T21:31:28.907Z,98005.77
2023-02-26T21:33:55.501Z,98009.58
2023-02-26T21:36:22.753Z,98016.38
2023-02-26T21:38:49.579Z,98017.05
2023-02-26T21:41:16.578Z,98010.09
2023-02-26T21:43:43.000Z,98011.52
2023-02-26T21:46:09.507Z,98013.42
2023-02-26T21:48:36.042Z,98013.29
2023-02-26T21:51:03.495Z,98009.02
2023-02-26T21:53:29.903Z,98016.02
2023-02-26T21:55:56.280Z,98016.75
2023-02-26T21:58:23.101Z,98014.06
2023-02-26T22:00:49.597Z,98014.43
2023-02-26T22:03:16.130Z,98015.30
2023-02-26T22:05:42.939Z,98022.63
2023-02-26T22:08:09.498Z,98023.83
2023-02-26T22:10:36.057Z,98027.21
2023-02-26T22:13:04.931Z,98030.92
2023-02-26T22:15:31.442Z,98037.38
2023-02-26T22:17:57.923Z,98036.73
2023-02-26T22:20:24.328Z,98040.67
2023-02-26T22:22:51.123Z,98044.41
2023-02-26T22:25:17.911Z,98047.80
2023-02-26T22:27:44.445Z,98051.19
2023-02-26T22:30:12.909Z,98057.66
2023-02-26T22:32:39.359Z,98062.26
2023-02-26T22:35:09.146Z,98066.01
2023-02-26T22:37:39.199Z,98068.88
2023-02-26T22:40:06.130Z,98068.02
2023-02-26T22:42:33.205Z,98069.37
2023-02-26T22:44:59.682Z,98068.83
2023-02-26T22:47:26.598Z,98070.00
2023-02-26T22:50:04.650Z,98066.59
2023-02-26T22:52:31.159Z,98066.75
2023-02-26T22:54:57.466Z,98066.23
2023-02-26T22:57:23.964Z,98066.90
2023-02-26T22:59:50.512Z,98065.73
2023-02-26T23:02:16.793Z,98071.51
2023-02-26T23:04:43.241Z,98078.34
2023-02-26T23:07:09.658Z,98080.36
2023-02-26T23:09:36.136Z,98086.15
2023-02-26T23:12:02.856Z,98084.11
2023-02-26T23:14:29.321Z,98091.07
2023-02-26T23:16:55.720Z,98093.30
2023-02-26T23:19:22.089Z,98101.98
2023-02-26T23:21:48.465Z,98099.57
2023-02-26T23:24:14.925Z,98105.70
2023-02-26T23:26:41.257Z,98108.08
2023-02-26T23:29:07.750Z,98106.21
2023-02-26T23:31:34.323Z,98100.95
2023-02-26T23:34:00.743Z,98111.98
2023-02-26T23:36:30.019Z,98107.23
2023-02-26T23:38:56.351Z,98113.35
2023-02-26T23:41:22.952Z,98111.99
2023-02-26T23:43:49.328Z,98115.73
2023-02-26T23:46:15.829Z,98118.13
2023-02-26T23:48:42.266Z,98122.02
2023-02-26T23:51:08.657Z,98121.02
2023-02-26T23:53:35.053Z,98119.67
2023-02-26T23:56:01.381Z,98118.15
2023-02-26T23:58:30.599Z,98120.54
